sensor_id;sensor_type;location;lat;lon;timestamp;pressure;altitude;pressure_sealevel;temperature;humidity
55757;BME280;41676;44.610;44.078;2022-10-16T00:04:44;101195.34;;;10.83;100.00
55757;BME280;41676;44.610;44.078;2022-10-16T00:09:46;101231.19;;;10.97;100.00
55757;BME280;41676;44.610;44.078;2022-10-16T00:14:46;101224.94;;;10.88;100.00
55757;BME280;41676;44.610;44.078;2022-10-16T00:19:47;101226.22;;;10.84;100.00
55757;BME280;41676;44.610;44.078;2022-10-16T00:24:48;101219.69;;;10.79;100.00
55757;BME280;41676;44.610;44.078;2022-10-16T00:29:52;101201.56;;;10.64;100.00
55757;BME280;41676;44.610;44.078;2022-10-16T00:34:53;101226.13;;;10.76;100.00
55757;BME280;41676;44.610;44.078;2022-10-16T00:39:56;101243.00;;;10.85;100.00
55757;BME280;41676;44.610;44.078;2022-10-16T00:44:57;101242.47;;;10.81;100.00
55757;BME280;41676;44.610;44.078;2022-10-16T00:50:07;101222.41;;;10.69;100.00
55757;BME280;41676;44.610;44.078;2022-10-16T00:55:09;101232.03;;;10.70;100.00
55757;BME280;41676;44.610;44.078;2022-10-16T01:00:12;101243.06;;;10.75;100.00
55757;BME280;41676;44.610;44.078;2022-10-16T01:05:13;101243.66;;;10.69;100.00
55757;BME280;41676;44.610;44.078;2022-10-16T01:10:35;101253.28;;;10.70;100.00
55757;BME280;41676;44.610;44.078;2022-10-16T01:15:42;101270.06;;;10.80;100.00
55757;BME280;41676;44.610;44.078;2022-10-16T01:20:52;101247.47;;;10.57;100.00
55757;BME280;41676;44.610;44.078;2022-10-16T01:31:18;101283.81;;;10.66;100.00
55757;BME280;41676;44.610;44.078;2022-10-16T01:36:25;101277.38;;;10.59;100.00
55757;BME280;41676;44.610;44.078;2022-10-16T01:41:36;101277.13;;;10.52;100.00
55757;BME280;41676;44.610;44.078;2022-10-16T01:46:40;101279.41;;;10.47;100.00
55757;BME280;41676;44.610;44.078;2022-10-16T01:51:44;101287.63;;;10.44;100.00
55757;BME280;41676;44.610;44.078;2022-10-16T01:56:48;101217.72;;;9.96;100.00
55757;BME280;41676;44.610;44.078;2022-10-16T02:01:56;101274.66;;;10.31;100.00
55757;BME280;41676;44.610;44.078;2022-10-16T02:06:59;101197.06;;;9.71;100.00
55757;BME280;41676;44.610;44.078;2022-10-16T02:12:15;101290.88;;;10.18;100.00
55757;BME280;41676;44.610;44.078;2022-10-16T02:17:19;101266.06;;;9.90;100.00
55757;BME280;41676;44.610;44.078;2022-10-16T02:22:43;101316.06;;;10.14;100.00
55757;BME280;41676;44.610;44.078;2022-10-16T02:28:16;101321.06;;;10.07;100.00
55757;BME280;41676;44.610;44.078;2022-10-16T02:33:19;101244.13;;;9.49;100.00
55757;BME280;41676;44.610;44.078;2022-10-16T02:38:23;101324.44;;;10.00;100.00
55757;BME280;41676;44.610;44.078;2022-10-16T02:43:25;101317.44;;;9.89;100.00
55757;BME280;41676;44.610;44.078;2022-10-16T02:48:26;101300.81;;;9.77;100.00
55757;BME280;41676;44.610;44.078;2022-10-16T02:53:27;101332.69;;;9.97;100.00
55757;BME280;41676;44.610;44.078;2022-10-16T02:58:28;101327.22;;;9.89;100.00
55757;BME280;41676;44.610;44.078;2022-10-16T03:03:28;101328.50;;;9.94;100.00
55757;BME280;41676;44.610;44.078;2022-10-16T03:08:29;101311.72;;;9.65;100.00
55757;BME280;41676;44.610;44.078;2022-10-16T03:13:30;101253.03;;;9.19;100.00
55757;BME280;41676;44.610;44.078;2022-10-16T03:18:31;101349.84;;;9.73;100.00
55757;BME280;41676;44.610;44.078;2022-10-16T03:23:32;101344.66;;;9.62;100.00
55757;BME280;41676;44.610;44.078;2022-10-16T03:28:32;101321.44;;;9.45;100.00
55757;BME280;41676;44.610;44.078;2022-10-16T03:33:33;101339.47;;;9.51;100.00
55757;BME280;41676;44.610;44.078;2022-10-16T03:38:34;101355.25;;;9.52;100.00
55757;BME280;41676;44.610;44.078;2022-10-16T03:43:35;101367.53;;;9.44;100.00
55757;BME280;41676;44.610;44.078;2022-10-16T03:48:36;101377.28;;;9.43;100.00
55757;BME280;41676;44.610;44.078;2022-10-16T03:53:37;101363.50;;;9.49;100.00
55757;BME280;41676;44.610;44.078;2022-10-16T03:58:38;101371.00;;;9.44;100.00
55757;BME280;41676;44.610;44.078;2022-10-16T04:03:38;101226.72;;;8.47;100.00
55757;BME280;41676;44.610;44.078;2022-10-16T04:08:42;101358.94;;;9.21;100.00
55757;BME280;41676;44.610;44.078;2022-10-16T04:13:43;101386.78;;;9.46;100.00
55757;BME280;41676;44.610;44.078;2022-10-16T04:18:44;101371.63;;;9.27;100.00
55757;BME280;41676;44.610;44.078;2022-10-16T04:23:44;101385.78;;;9.37;100.00
55757;BME280;41676;44.610;44.078;2022-10-16T04:28:45;101389.25;;;9.28;100.00
55757;BME280;41676;44.610;44.078;2022-10-16T04:33:46;101417.53;;;9.48;100.00
55757;BME280;41676;44.610;44.078;2022-10-16T04:38:47;101423.50;;;9.50;100.00
55757;BME280;41676;44.610;44.078;2022-10-16T04:43:47;101428.97;;;9.49;100.00
55757;BME280;41676;44.610;44.078;2022-10-16T04:48:48;101443.31;;;9.46;100.00
55757;BME280;41676;44.610;44.078;2022-10-16T04:53:49;101441.50;;;9.47;100.00
55757;BME280;41676;44.610;44.078;2022-10-16T04:58:50;101432.53;;;9.38;100.00
55757;BME280;41676;44.610;44.078;2022-10-16T05:03:50;101446.16;;;9.54;100.00
55757;BME280;41676;44.610;44.078;2022-10-16T05:08:51;101432.41;;;9.40;100.00
55757;BME280;41676;44.610;44.078;2022-10-16T05:13:52;101460.66;;;9.50;100.00
55757;BME280;41676;44.610;44.078;2022-10-16T05:18:53;101455.09;;;9.63;100.00
55757;BME280;41676;44.610;44.078;2022-10-16T05:23:54;101469.97;;;9.75;100.00
55757;BME280;41676;44.610;44.078;2022-10-16T05:28:55;101467.88;;;9.79;100.00
55757;BME280;41676;44.610;44.078;2022-10-16T05:34:00;101465.25;;;9.89;100.00
55757;BME280;41676;44.610;44.078;2022-10-16T05:39:01;101467.34;;;9.95;100.00
55757;BME280;41676;44.610;44.078;2022-10-16T05:44:05;101394.34;;;9.60;100.00
55757;BME280;41676;44.610;44.078;2022-10-16T05:49:06;101474.38;;;10.15;100.00
55757;BME280;41676;44.610;44.078;2022-10-16T05:54:07;101422.38;;;9.93;100.00
55757;BME280;41676;44.610;44.078;2022-10-16T05:59:07;101465.34;;;10.27;100.00
55757;BME280;41676;44.610;44.078;2022-10-16T06:04:09;101472.47;;;10.27;100.00
55757;BME280;41676;44.610;44.078;2022-10-16T06:09:10;101479.88;;;10.33;100.00
55757;BME280;41676;44.610;44.078;2022-10-16T06:14:11;101467.72;;;10.31;100.00
55757;BME280;41676;44.610;44.078;2022-10-16T06:19:11;101465.78;;;10.33;100.00
55757;BME280;41676;44.610;44.078;2022-10-16T06:24:12;101455.25;;;10.21;100.00
55757;BME280;41676;44.610;44.078;2022-10-16T06:29:13;101452.88;;;10.28;100.00
55757;BME280;41676;44.610;44.078;2022-10-16T06:34:14;101453.31;;;10.33;100.00
55757;BME280;41676;44.610;44.078;2022-10-16T06:39:15;101481.00;;;10.60;100.00
55757;BME280;41676;44.610;44.078;2022-10-16T06:44:15;101391.22;;;10.24;100.00
55757;BME280;41676;44.610;44.078;2022-10-16T06:49:16;101464.78;;;10.72;100.00
55757;BME280;41676;44.610;44.078;2022-10-16T06:54:21;101451.06;;;10.58;100.00
55757;BME280;41676;44.610;44.078;2022-10-16T06:59:22;101452.44;;;10.81;100.00
55757;BME280;41676;44.610;44.078;2022-10-16T07:04:23;101460.94;;;11.04;100.00
55757;BME280;41676;44.610;44.078;2022-10-16T07:09:24;101456.03;;;11.09;100.00
55757;BME280;41676;44.610;44.078;2022-10-16T07:14:25;101460.75;;;11.15;100.00
55757;BME280;41676;44.610;44.078;2022-10-16T07:19:25;101434.66;;;11.01;100.00
55757;BME280;41676;44.610;44.078;2022-10-16T07:24:26;101381.69;;;10.70;100.00
55757;BME280;41676;44.610;44.078;2022-10-16T07:29:27;101452.03;;;11.33;100.00
55757;BME280;41676;44.610;44.078;2022-10-16T07:34:28;101464.72;;;11.49;100.00
55757;BME280;41676;44.610;44.078;2022-10-16T07:39:28;101458.81;;;11.55;100.00
55757;BME280;41676;44.610;44.078;2022-10-16T07:44:29;101385.88;;;11.20;100.00
55757;BME280;41676;44.610;44.078;2022-10-16T07:49:30;101380.38;;;11.31;100.00
55757;BME280;41676;44.610;44.078;2022-10-16T07:54:31;101454.09;;;11.76;100.00
55757;BME280;41676;44.610;44.078;2022-10-16T07:59:31;101481.22;;;11.90;100.00
55757;BME280;41676;44.610;44.078;2022-10-16T08:04:32;101490.81;;;11.73;100.00
55757;BME280;41676;44.610;44.078;2022-10-16T08:09:33;101350.00;;;10.96;100.00
55757;BME280;41676;44.610;44.078;2022-10-16T08:14:34;101483.75;;;11.81;100.00
55757;BME280;41676;44.610;44.078;2022-10-16T08:19:35;101477.97;;;11.96;100.00
55757;BME280;41676;44.610;44.078;2022-10-16T08:24:35;101488.59;;;11.96;100.00
55757;BME280;41676;44.610;44.078;2022-10-16T08:29:37;101481.84;;;12.01;100.00
55757;BME280;41676;44.610;44.078;2022-10-16T08:34:38;101476.47;;;12.11;100.00
55757;BME280;41676;44.610;44.078;2022-10-16T08:39:39;101407.13;;;11.75;100.00
55757;BME280;41676;44.610;44.078;2022-10-16T08:49:58;101457.06;;;12.54;100.00
55757;BME280;41676;44.610;44.078;2022-10-16T08:54:59;101482.88;;;12.72;100.00
55757;BME280;41676;44.610;44.078;2022-10-16T09:00:12;101462.13;;;12.84;100.00
55757;BME280;41676;44.610;44.078;2022-10-16T09:10:33;101452.88;;;12.96;100.00
55757;BME280;41676;44.610;44.078;2022-10-16T09:25:57;101445.19;;;13.19;100.00
55757;BME280;41676;44.610;44.078;2022-10-16T09:30:58;101461.31;;;13.35;100.00
55757;BME280;41676;44.610;44.078;2022-10-16T09:35:59;101300.38;;;12.40;100.00
55757;BME280;41676;44.610;44.078;2022-10-16T09:46:44;101451.56;;;13.52;100.00
55757;BME280;41676;44.610;44.078;2022-10-16T09:51:45;101455.59;;;13.56;100.00
55757;BME280;41676;44.610;44.078;2022-10-16T09:56:47;101446.09;;;13.62;100.00
55757;BME280;41676;44.610;44.078;2022-10-16T10:01:53;101362.53;;;13.27;100.00
55757;BME280;41676;44.610;44.078;2022-10-16T10:06:56;101454.88;;;13.88;100.00
55757;BME280;41676;44.610;44.078;2022-10-16T10:11:59;101449.06;;;14.01;100.00
55757;BME280;41676;44.610;44.078;2022-10-16T10:17:23;101420.31;;;13.87;100.00
55757;BME280;41676;44.610;44.078;2022-10-16T10:22:39;101453.06;;;13.97;100.00
55757;BME280;41676;44.610;44.078;2022-10-16T10:28:03;101452.94;;;14.15;100.00
55757;BME280;41676;44.610;44.078;2022-10-16T10:59:43;101355.91;;;14.55;94.20
55757;BME280;41676;44.610;44.078;2022-10-16T11:05:08;101425.34;;;15.04;92.99
55757;BME280;41676;44.610;44.078;2022-10-16T11:10:40;101419.81;;;15.14;90.33
55757;BME280;41676;44.610;44.078;2022-10-16T11:15:44;101421.69;;;15.14;92.10
55757;BME280;41676;44.610;44.078;2022-10-16T11:20:54;101418.13;;;15.13;91.71
55757;BME280;41676;44.610;44.078;2022-10-16T11:26:02;101421.69;;;15.14;88.43
55757;BME280;41676;44.610;44.078;2022-10-16T11:36:49;101412.97;;;15.03;87.74
55757;BME280;41676;44.610;44.078;2022-10-16T11:52:39;101418.44;;;15.26;84.35
55757;BME280;41676;44.610;44.078;2022-10-16T11:57:46;101421.59;;;15.30;83.51
55757;BME280;41676;44.610;44.078;2022-10-16T12:03:03;101366.34;;;14.98;82.83
55757;BME280;41676;44.610;44.078;2022-10-16T12:08:11;101368.38;;;14.96;82.30
55757;BME280;41676;44.610;44.078;2022-10-16T12:13:34;101433.28;;;15.37;81.41
55757;BME280;41676;44.610;44.078;2022-10-16T12:18:36;101391.06;;;15.08;82.08
55757;BME280;41676;44.610;44.078;2022-10-16T12:24:00;101417.97;;;15.23;81.31
55757;BME280;41676;44.610;44.078;2022-10-16T12:34:44;101388.09;;;14.95;79.75
55757;BME280;41676;44.610;44.078;2022-10-16T12:39:45;101446.88;;;15.27;80.52
55757;BME280;41676;44.610;44.078;2022-10-16T12:44:47;101420.31;;;15.18;80.48
55757;BME280;41676;44.610;44.078;2022-10-16T12:49:51;101436.34;;;15.26;79.53
55757;BME280;41676;44.610;44.078;2022-10-16T12:54:56;101416.00;;;15.09;78.58
55757;BME280;41676;44.610;44.078;2022-10-16T13:00:04;101450.38;;;15.28;78.86
55757;BME280;41676;44.610;44.078;2022-10-16T13:05:25;101455.41;;;15.31;78.63
55757;BME280;41676;44.610;44.078;2022-10-16T13:10:40;101471.66;;;15.29;78.56
55757;BME280;41676;44.610;44.078;2022-10-16T13:31:38;101442.28;;;14.89;80.33
55757;BME280;41676;44.610;44.078;2022-10-16T13:36:49;101466.50;;;15.03;80.30
55757;BME280;41676;44.610;44.078;2022-10-16T13:42:06;101478.22;;;15.11;79.18
55757;BME280;41676;44.610;44.078;2022-10-16T13:47:16;101468.50;;;15.10;79.44
55757;BME280;41676;44.610;44.078;2022-10-16T13:52:21;101490.59;;;15.12;80.38
55757;BME280;41676;44.610;44.078;2022-10-16T13:57:24;101409.53;;;14.62;80.69
55757;BME280;41676;44.610;44.078;2022-10-16T14:02:37;101483.56;;;15.11;80.42
55757;BME280;41676;44.610;44.078;2022-10-16T14:07:39;101379.09;;;14.47;80.86
55757;BME280;41676;44.610;44.078;2022-10-16T14:12:41;101482.22;;;15.06;80.95
55757;BME280;41676;44.610;44.078;2022-10-16T14:17:44;101417.75;;;14.60;80.99
55757;BME280;41676;44.610;44.078;2022-10-16T14:22:46;101493.94;;;14.97;81.54
55757;BME280;41676;44.610;44.078;2022-10-16T14:33:18;101491.94;;;14.83;82.41
55757;BME280;41676;44.610;44.078;2022-10-16T14:38:20;101499.13;;;14.82;82.89
55757;BME280;41676;44.610;44.078;2022-10-16T14:43:26;101511.34;;;14.77;83.66
55757;BME280;41676;44.610;44.078;2022-10-16T14:48:30;101440.59;;;14.30;84.10
55757;BME280;41676;44.610;44.078;2022-10-16T14:53:32;101437.91;;;14.22;84.85
55757;BME280;41676;44.610;44.078;2022-10-16T14:58:32;101492.22;;;14.47;85.25
55757;BME280;41676;44.610;44.078;2022-10-16T15:03:33;101537.41;;;14.58;85.54
55757;BME280;41676;44.610;44.078;2022-10-16T15:08:34;101536.06;;;14.54;86.06
55757;BME280;41676;44.610;44.078;2022-10-16T15:13:35;101550.72;;;14.50;86.66
55757;BME280;41676;44.610;44.078;2022-10-16T15:18:35;101553.06;;;14.45;87.09
55757;BME280;41676;44.610;44.078;2022-10-16T15:23:36;101549.34;;;14.30;87.28
55757;BME280;41676;44.610;44.078;2022-10-16T15:28:39;101556.84;;;14.26;87.46
55757;BME280;41676;44.610;44.078;2022-10-16T15:33:39;101552.00;;;14.22;87.73
55757;BME280;41676;44.610;44.078;2022-10-16T15:38:40;101585.91;;;14.29;88.12
55757;BME280;41676;44.610;44.078;2022-10-16T15:43:41;101579.03;;;14.19;88.41
55757;BME280;41676;44.610;44.078;2022-10-16T15:48:42;101496.19;;;13.68;88.72
55757;BME280;41676;44.610;44.078;2022-10-16T15:53:43;101559.59;;;14.00;89.02
55757;BME280;41676;44.610;44.078;2022-10-16T15:58:46;101580.13;;;14.00;89.09
55757;BME280;41676;44.610;44.078;2022-10-16T16:03:47;101569.72;;;13.88;89.36
55757;BME280;41676;44.610;44.078;2022-10-16T16:08:48;101575.53;;;13.84;89.69
55757;BME280;41676;44.610;44.078;2022-10-16T16:13:49;101593.97;;;13.95;89.79
55757;BME280;41676;44.610;44.078;2022-10-16T16:18:52;101608.47;;;13.92;90.01
55757;BME280;41676;44.610;44.078;2022-10-16T16:23:54;101596.53;;;13.79;89.99
55757;BME280;41676;44.610;44.078;2022-10-16T16:28:55;101599.22;;;13.79;90.17
55757;BME280;41676;44.610;44.078;2022-10-16T16:33:57;101521.81;;;13.27;90.38
55757;BME280;41676;44.610;44.078;2022-10-16T16:38:58;101613.38;;;13.71;90.51
55757;BME280;41676;44.610;44.078;2022-10-16T16:44:07;101535.69;;;13.12;90.66
55757;BME280;41676;44.610;44.078;2022-10-16T16:49:11;101618.06;;;13.51;90.11
55757;BME280;41676;44.610;44.078;2022-10-16T16:54:12;101654.16;;;13.55;90.05
55757;BME280;41676;44.610;44.078;2022-10-16T16:59:16;101652.38;;;13.46;90.16
55757;BME280;41676;44.610;44.078;2022-10-16T17:04:18;101633.16;;;13.24;90.09
55757;BME280;41676;44.610;44.078;2022-10-16T17:09:19;101653.94;;;13.31;90.18
55757;BME280;41676;44.610;44.078;2022-10-16T17:14:20;101649.34;;;13.23;90.13
55757;BME280;41676;44.610;44.078;2022-10-16T17:19:21;101655.38;;;13.25;90.44
55757;BME280;41676;44.610;44.078;2022-10-16T17:24:22;101675.34;;;13.21;90.29
55757;BME280;41676;44.610;44.078;2022-10-16T17:29:23;101572.91;;;12.60;90.08
55757;BME280;41676;44.610;44.078;2022-10-16T17:34:24;101669.09;;;13.12;90.55
55757;BME280;41676;44.610;44.078;2022-10-16T17:39:24;101661.28;;;13.01;90.15
55757;BME280;41676;44.610;44.078;2022-10-16T17:44:25;101672.75;;;12.93;90.33
55757;BME280;41676;44.610;44.078;2022-10-16T17:49:26;101598.00;;;12.40;90.53
55757;BME280;41676;44.610;44.078;2022-10-16T17:54:27;101680.66;;;12.85;90.42
55757;BME280;41676;44.610;44.078;2022-10-16T17:59:27;101668.69;;;12.71;90.79
55757;BME280;41676;44.610;44.078;2022-10-16T18:04:28;101662.13;;;12.66;90.47
55757;BME280;41676;44.610;44.078;2022-10-16T18:09:29;101670.25;;;12.64;90.92
55757;BME280;41676;44.610;44.078;2022-10-16T18:14:31;101593.34;;;12.14;90.85
55757;BME280;41676;44.610;44.078;2022-10-16T18:19:32;101669.84;;;12.59;91.35
55757;BME280;41676;44.610;44.078;2022-10-16T18:24:33;101655.44;;;12.52;91.41
55757;BME280;41676;44.610;44.078;2022-10-16T18:29:34;101605.19;;;12.12;91.46
55757;BME280;41676;44.610;44.078;2022-10-16T18:34:37;101610.34;;;12.13;91.62
55757;BME280;41676;44.610;44.078;2022-10-16T18:39:37;101606.31;;;12.09;91.60
55757;BME280;41676;44.610;44.078;2022-10-16T18:44:38;101653.31;;;12.28;91.12
55757;BME280;41676;44.610;44.078;2022-10-16T18:49:39;101660.47;;;12.27;91.77
55757;BME280;41676;44.610;44.078;2022-10-16T18:54:40;101659.66;;;12.27;91.58
55757;BME280;41676;44.610;44.078;2022-10-16T18:59:40;101653.06;;;12.21;91.81
55757;BME280;41676;44.610;44.078;2022-10-16T19:04:41;101587.06;;;11.68;90.88
55757;BME280;41676;44.610;44.078;2022-10-16T19:09:42;101573.50;;;11.61;91.03
55757;BME280;41676;44.610;44.078;2022-10-16T19:14:43;101657.91;;;11.98;90.88
55757;BME280;41676;44.610;44.078;2022-10-16T19:19:44;101656.38;;;11.96;90.80
55757;BME280;41676;44.610;44.078;2022-10-16T19:24:44;101663.13;;;11.90;90.78
55757;BME280;41676;44.610;44.078;2022-10-16T19:29:45;101585.03;;;11.42;90.25
55757;BME280;41676;44.610;44.078;2022-10-16T19:34:49;101582.66;;;11.39;91.12
55757;BME280;41676;44.610;44.078;2022-10-16T19:39:50;101686.25;;;11.90;91.03
55757;BME280;41676;44.610;44.078;2022-10-16T19:44:51;101680.75;;;11.81;90.89
55757;BME280;41676;44.610;44.078;2022-10-16T19:49:52;101608.97;;;11.33;90.77
55757;BME280;41676;44.610;44.078;2022-10-16T19:54:54;101710.19;;;11.80;90.56
55757;BME280;41676;44.610;44.078;2022-10-16T19:59:57;101694.81;;;11.74;90.44
55757;BME280;41676;44.610;44.078;2022-10-16T20:04:57;101674.50;;;11.63;90.55
55757;BME280;41676;44.610;44.078;2022-10-16T20:09:58;101690.31;;;11.74;90.67
55757;BME280;41676;44.610;44.078;2022-10-16T20:14:59;101605.91;;;11.18;90.24
55757;BME280;41676;44.610;44.078;2022-10-16T20:20:00;101686.56;;;11.67;89.94
55757;BME280;41676;44.610;44.078;2022-10-16T20:25:01;101669.47;;;11.50;89.98
55757;BME280;41676;44.610;44.078;2022-10-16T20:30:01;101680.81;;;11.62;90.19
55757;BME280;41676;44.610;44.078;2022-10-16T20:35:03;101591.81;;;11.08;89.58
55757;BME280;41676;44.610;44.078;2022-10-16T20:40:04;101686.41;;;11.59;90.15
55757;BME280;41676;44.610;44.078;2022-10-16T20:45:05;101542.28;;;10.68;89.76
55757;BME280;41676;44.610;44.078;2022-10-16T20:50:07;101707.72;;;11.59;89.53
55757;BME280;41676;44.610;44.078;2022-10-16T20:55:08;101688.94;;;11.41;89.53
55757;BME280;41676;44.610;44.078;2022-10-16T21:00:10;101710.22;;;11.60;89.89
55757;BME280;41676;44.610;44.078;2022-10-16T21:05:11;101686.97;;;11.53;89.46
55757;BME280;41676;44.610;44.078;2022-10-16T21:10:12;101703.78;;;11.53;89.85
55757;BME280;41676;44.610;44.078;2022-10-16T21:15:12;101682.06;;;11.48;89.39
55757;BME280;41676;44.610;44.078;2022-10-16T21:20:13;101665.56;;;11.35;89.85
55757;BME280;41676;44.610;44.078;2022-10-16T21:25:14;101672.72;;;11.34;89.48
55757;BME280;41676;44.610;44.078;2022-10-16T21:30:15;101701.81;;;11.46;89.30
55757;BME280;41676;44.610;44.078;2022-10-16T21:35:16;101698.59;;;11.42;89.22
55757;BME280;41676;44.610;44.078;2022-10-16T21:40:17;101667.09;;;11.18;89.34
55757;BME280;41676;44.610;44.078;2022-10-16T21:45:18;101714.44;;;11.43;89.27
55757;BME280;41676;44.610;44.078;2022-10-16T21:50:18;101710.34;;;11.39;89.47
55757;BME280;41676;44.610;44.078;2022-10-16T21:55:19;101727.19;;;11.40;88.97
55757;BME280;41676;44.610;44.078;2022-10-16T22:00:20;101638.38;;;10.83;88.89
55757;BME280;41676;44.610;44.078;2022-10-16T22:05:21;101663.72;;;10.96;88.85
55757;BME280;41676;44.610;44.078;2022-10-16T22:10:21;101727.59;;;11.35;88.94
55757;BME280;41676;44.610;44.078;2022-10-16T22:15:22;101734.59;;;11.36;88.65
55757;BME280;41676;44.610;44.078;2022-10-16T22:20:23;101733.91;;;11.34;88.55
55757;BME280;41676;44.610;44.078;2022-10-16T22:25:24;101741.44;;;11.29;88.31
55757;BME280;41676;44.610;44.078;2022-10-16T22:30:24;101725.34;;;11.21;88.19
55757;BME280;41676;44.610;44.078;2022-10-16T22:35:25;101643.00;;;10.71;88.08
55757;BME280;41676;44.610;44.078;2022-10-16T22:40:26;101744.09;;;11.29;88.18
55757;BME280;41676;44.610;44.078;2022-10-16T22:45:27;101730.53;;;11.23;88.65
55757;BME280;41676;44.610;44.078;2022-10-16T22:50:28;101753.63;;;11.32;88.44
55757;BME280;41676;44.610;44.078;2022-10-16T22:55:29;101668.03;;;10.78;87.98
55757;BME280;41676;44.610;44.078;2022-10-16T23:00:30;101753.63;;;11.22;88.43
55757;BME280;41676;44.610;44.078;2022-10-16T23:05:31;101760.06;;;11.19;88.43
55757;BME280;41676;44.610;44.078;2022-10-16T23:10:33;101744.94;;;11.20;88.37
55757;BME280;41676;44.610;44.078;2022-10-16T23:15:34;101737.94;;;11.19;88.53
55757;BME280;41676;44.610;44.078;2022-10-16T23:20:39;101716.50;;;11.11;88.56
55757;BME280;41676;44.610;44.078;2022-10-16T23:25:44;101731.91;;;11.17;88.82
55757;BME280;41676;44.610;44.078;2022-10-16T23:30:46;101714.41;;;11.14;88.85
55757;BME280;41676;44.610;44.078;2022-10-16T23:35:47;101666.50;;;10.76;88.32
55757;BME280;41676;44.610;44.078;2022-10-16T23:40:47;101569.53;;;10.20;88.47
55757;BME280;41676;44.610;44.078;2022-10-16T23:45:48;101739.88;;;11.07;88.11
55757;BME280;41676;44.610;44.078;2022-10-16T23:50:49;101644.59;;;10.52;88.18
55757;BME280;41676;44.610;44.078;2022-10-16T23:55:50;101713.53;;;10.94;88.01
